Pagina principale
METAR-TAF:

METAR-TAF

Aeroporti :

Lusaka, Zambia

Aeroporto Internazionale di Lusaka

latitudine: 15-19-51S, longitudine: 028-27-09E, altezza: 1152 m

Osservazione

Il bollettino è stato emesso 36 minuti fa, alle 13:00 UTC
Vento 7 kt da ovest/nord-ovest
Temperature 26°C
Umidità 65%
Pressione 1014 hPa
Visibilità: 8000 m
Poco nuvoloso ad un'altezza di 3000 ft, Cumulonembo.
Nuvoloso ad un'altezza di 9000 ft

METAR: FLKK 241300Z 29007KT 8000 FEW030CB BKN090 26/19 Q1014

Ora: 15:36 (13:36 UTC)


TAF: mancante

Osservazioni e previsioni meteorologiche di più di 4000 aeroporti (messaggi METAR e TAF).

Le stazioni disponibili sono rappresentate dai dischi gialli e rossi sulla carta.

Puntare il mouse per vedere il nome della stazione.

Clicca sopra per visualizzare le osservazioni e previsioni meteorologiche.

Per cambiare la mappa : fare clic sui pulsanti verdi con una croce nera per ingrandire, il pulsante verde con un trattino per diminuire, o sulla freccia verde per le mappe adiacenti.


METAR-TAF: